createdAt,value
2018-05-17T00:00:14.957Z,1000.3
2018-05-17T00:01:14.984Z,1000.29
2018-05-17T00:02:14.996Z,1000.3
2018-05-17T00:03:15.024Z,1000.28
2018-05-17T00:04:15.043Z,1000.28
2018-05-17T00:05:15.064Z,1000.3
2018-05-17T00:06:15.081Z,1000.29
2018-05-17T00:07:15.098Z,1000.27
2018-05-17T00:08:15.118Z,1000.26
2018-05-17T00:09:15.141Z,1000.3
2018-05-17T00:10:15.163Z,1000.29
2018-05-17T00:11:15.184Z,1000.27
2018-05-17T00:12:15.200Z,1000.29
2018-05-17T00:13:15.223Z,1000.27
2018-05-17T00:14:15.247Z,1000.27
2018-05-17T00:15:15.259Z,1000.27
2018-05-17T00:16:15.279Z,1000.29
2018-05-17T00:17:15.305Z,1000.29
2018-05-17T00:18:15.322Z,1000.24
2018-05-17T00:19:15.346Z,1000.25
2018-05-17T00:20:15.359Z,1000.26
2018-05-17T00:21:15.385Z,1000.27
2018-05-17T00:22:15.402Z,1000.25
2018-05-17T00:23:15.421Z,1000.25
2018-05-17T00:24:15.444Z,1000.21
2018-05-17T00:25:15.466Z,1000.24
2018-05-17T00:26:15.487Z,1000.23
2018-05-17T00:27:15.507Z,1000.24
2018-05-17T00:28:15.531Z,1000.25
2018-05-17T00:29:15.558Z,1000.21
2018-05-17T00:30:15.565Z,1000.21
2018-05-17T00:31:15.583Z,1000.21
2018-05-17T00:32:15.607Z,1000.21
2018-05-17T00:33:15.626Z,1000.2
2018-05-17T00:34:15.647Z,1000.17
2018-05-17T00:35:15.669Z,1000.15
2018-05-17T00:36:15.689Z,1000.21
2018-05-17T00:37:15.709Z,1000.17
2018-05-17T00:38:15.727Z,1000.21
2018-05-17T00:39:15.748Z,1000.21
2018-05-17T00:40:15.772Z,1000.18
2018-05-17T00:41:15.783Z,1000.19
2018-05-17T00:42:15.815Z,1000.19
2018-05-17T00:43:15.828Z,1000.16
2018-05-17T00:44:15.844Z,1000.19
2018-05-17T00:45:15.864Z,1000.18
2018-05-17T00:46:15.888Z,1000.2
2018-05-17T00:47:15.903Z,1000.21
2018-05-17T00:48:15.929Z,1000.22
2018-05-17T00:49:15.948Z,1000.2
2018-05-17T00:50:15.967Z,1000.19
2018-05-17T00:51:15.984Z,1000.17
2018-05-17T00:52:16.255Z,1000.16
2018-05-17T00:53:16.029Z,1000.18
2018-05-17T00:54:16.050Z,1000.16
2018-05-17T00:55:16.066Z,1000.17
2018-05-17T00:56:16.085Z,1000.14
2018-05-17T00:57:16.105Z,1000.16
2018-05-17T00:58:16.131Z,1000.16
2018-05-17T00:59:16.149Z,1000.18
2018-05-17T01:00:16.164Z,1000.17
2018-05-17T01:01:16.190Z,1000.14
2018-05-17T01:02:16.207Z,1000.16
2018-05-17T01:03:16.229Z,1000.14
2018-05-17T01:04:16.250Z,1000.1
2018-05-17T01:05:16.265Z,1000.13
2018-05-17T01:06:16.292Z,1000.07
2018-05-17T01:07:16.307Z,1000.06
2018-05-17T01:08:16.329Z,1000.03
2018-05-17T01:09:16.344Z,1000.06
2018-05-17T01:10:16.368Z,1000.05
2018-05-17T01:11:16.439Z,1000.04
2018-05-17T01:12:16.404Z,1000.08
2018-05-17T01:13:16.431Z,1000.08
2018-05-17T01:14:16.449Z,1000.04
2018-05-17T01:15:16.469Z,1000.03
2018-05-17T01:16:16.484Z,1000.05
2018-05-17T01:17:16.510Z,1000.04
2018-05-17T01:18:16.529Z,1000.07
2018-05-17T01:19:16.553Z,1000.02
2018-05-17T01:20:16.570Z,1000.03
2018-05-17T01:21:16.588Z,1000.06
2018-05-17T01:22:16.609Z,1000.02
2018-05-17T01:23:16.629Z,999.98
2018-05-17T01:24:16.643Z,1000.02
2018-05-17T01:25:16.669Z,1000
2018-05-17T01:26:16.698Z,1000
2018-05-17T01:27:16.711Z,999.99
2018-05-17T01:28:16.727Z,1000
2018-05-17T01:29:16.746Z,1000.03
2018-05-17T01:30:16.765Z,1000.01
2018-05-17T01:31:16.788Z,1000
2018-05-17T01:32:16.802Z,1000.03
2018-05-17T01:33:16.826Z,1000.04
2018-05-17T01:34:16.842Z,1000
2018-05-17T01:35:16.867Z,1000.03
2018-05-17T01:36:16.885Z,1000.07
2018-05-17T01:37:17.116Z,1000.04
2018-05-17T01:38:16.923Z,1000.01
2018-05-17T01:39:16.949Z,1000.03
2018-05-17T01:40:16.967Z,1000.05
2018-05-17T01:41:16.988Z,999.99
2018-05-17T01:42:17.008Z,1000.02
2018-05-17T01:43:17.027Z,1000.05
2018-05-17T01:44:17.051Z,1000.07
2018-05-17T01:45:17.062Z,1000.06
2018-05-17T01:46:17.080Z,1000.06
2018-05-17T01:47:17.105Z,1000.07
2018-05-17T01:48:17.125Z,1000.06
2018-05-17T01:49:17.145Z,1000.05
2018-05-17T01:50:17.165Z,1000.06
2018-05-17T01:51:17.179Z,1000.04
2018-05-17T01:52:17.204Z,1000.05
2018-05-17T01:53:17.224Z,1000.03
2018-05-17T01:54:17.245Z,1000.07
2018-05-17T01:55:17.269Z,1000.02
2018-05-17T01:56:17.278Z,1000.03
2018-05-17T01:57:17.304Z,1000.04
2018-05-17T01:58:17.521Z,1000.06
2018-05-17T01:59:17.337Z,1000.05
2018-05-17T02:00:17.429Z,1000.06
2018-05-17T02:01:17.377Z,1000.07
2018-05-17T02:02:17.398Z,1000.11
2018-05-17T02:03:17.421Z,1000.1
2018-05-17T02:04:17.452Z,1000.1
2018-05-17T02:05:17.458Z,1000.05
2018-05-17T02:06:17.477Z,1000.07
2018-05-17T02:07:17.505Z,1000.05
2018-05-17T02:08:17.520Z,1000.05
2018-05-17T02:09:17.540Z,1000.06
2018-05-17T02:10:17.555Z,1000.05
2018-05-17T02:11:17.627Z,1000.04
2018-05-17T02:12:17.595Z,1000.03
2018-05-17T02:13:17.620Z,1000.06
2018-05-17T02:14:17.639Z,1000.07
2018-05-17T02:15:17.660Z,1000.05
2018-05-17T02:16:17.679Z,1000.03
2018-05-17T02:17:17.694Z,1000.06
2018-05-17T02:18:17.717Z,1000.09
2018-05-17T02:19:17.880Z,1000.09
2018-05-17T02:20:17.752Z,1000.08
2018-05-17T02:21:17.783Z,1000.09
2018-05-17T02:22:17.798Z,1000.08
2018-05-17T02:23:17.821Z,1000.11
2018-05-17T02:24:17.836Z,1000.06
2018-05-17T02:25:17.850Z,1000.08
2018-05-17T02:26:17.926Z,1000.12
2018-05-17T02:27:17.892Z,1000.13
2018-05-17T02:28:17.911Z,1000.1
2018-05-17T02:29:17.937Z,1000.12
2018-05-17T02:30:17.957Z,1000.1
2018-05-17T02:31:17.973Z,1000.13
2018-05-17T02:32:18.005Z,1000.12
2018-05-17T02:33:18.010Z,1000.15
2018-05-17T02:34:18.033Z,1000.15
2018-05-17T02:35:18.048Z,1000.19
2018-05-17T02:36:18.073Z,1000.19
2018-05-17T02:37:18.090Z,1000.21
2018-05-17T02:38:18.117Z,1000.26
2018-05-17T02:39:18.129Z,1000.23
2018-05-17T02:40:18.149Z,1000.28
2018-05-17T02:41:18.217Z,1000.28
2018-05-17T02:42:18.191Z,1000.29
2018-05-17T02:43:18.210Z,1000.26
2018-05-17T02:44:18.226Z,1000.28
2018-05-17T02:45:18.249Z,1000.25
2018-05-17T02:46:18.269Z,1000.24
2018-05-17T02:47:18.293Z,1000.22
2018-05-17T02:48:18.309Z,1000.26
2018-05-17T02:49:18.493Z,1000.27
2018-05-17T02:50:18.345Z,1000.26
2018-05-17T02:51:18.370Z,1000.2
2018-05-17T02:52:18.388Z,1000.26
2018-05-17T02:53:18.403Z,1000.27
2018-05-17T02:54:18.424Z,1000.26
2018-05-17T02:55:18.448Z,1000.27
2018-05-17T02:56:18.512Z,1000.26
2018-05-17T02:57:18.489Z,1000.27
2018-05-17T02:58:18.510Z,1000.3
2018-05-17T02:59:18.522Z,1000.26
2018-05-17T03:00:18.540Z,1000.29
2018-05-17T03:01:18.568Z,1000.32
2018-05-17T03:02:18.592Z,1000.33
2018-05-17T03:03:18.605Z,1000.29
2018-05-17T03:04:18.623Z,1000.34
2018-05-17T03:05:18.640Z,1000.37
2018-05-17T03:06:18.664Z,1000.41
2018-05-17T03:07:18.683Z,1000.38
2018-05-17T03:08:18.702Z,1000.39
2018-05-17T03:09:18.724Z,1000.44
2018-05-17T03:10:18.743Z,1000.4
2018-05-17T03:11:18.760Z,1000.4
2018-05-17T03:12:18.776Z,1000.41
2018-05-17T03:13:18.796Z,1000.43
2018-05-17T03:14:18.816Z,1000.41
2018-05-17T03:15:18.842Z,1000.46
2018-05-17T03:16:18.853Z,1000.41
2018-05-17T03:17:18.881Z,1000.46
2018-05-17T03:18:18.899Z,1000.47
2018-05-17T03:19:18.914Z,1000.46
2018-05-17T03:20:18.933Z,1000.47
2018-05-17T03:21:18.958Z,1000.46
2018-05-17T03:22:18.977Z,1000.47
2018-05-17T03:23:18.991Z,1000.44
2018-05-17T03:24:19.011Z,1000.48
2018-05-17T03:25:19.037Z,1000.47
2018-05-17T03:26:19.053Z,1000.43
2018-05-17T03:27:19.074Z,1000.43
2018-05-17T03:28:19.094Z,1000.46
2018-05-17T03:29:19.109Z,1000.5
2018-05-17T03:30:19.128Z,1000.53
2018-05-17T03:31:19.148Z,1000.5
2018-05-17T03:32:19.369Z,1000.57
2018-05-17T03:33:19.186Z,1000.55
2018-05-17T03:34:19.210Z,1000.57
2018-05-17T03:35:19.230Z,1000.57
2018-05-17T03:36:19.250Z,1000.56
2018-05-17T03:37:19.287Z,1000.56
2018-05-17T03:38:19.434Z,1000.55
2018-05-17T03:39:19.304Z,1000.6
2018-05-17T03:40:19.334Z,1000.59
2018-05-17T03:41:19.346Z,1000.62
2018-05-17T03:42:19.372Z,1000.63
2018-05-17T03:43:19.390Z,1000.64
2018-05-17T03:44:19.606Z,1000.61
2018-05-17T03:45:19.426Z,1000.65
2018-05-17T03:46:19.441Z,1000.65
2018-05-17T03:47:19.464Z,1000.63
2018-05-17T03:48:19.489Z,1000.61
2018-05-17T03:49:19.500Z,1000.63
2018-05-17T03:50:19.523Z,1000.64
2018-05-17T03:51:19.538Z,1000.63
2018-05-17T03:52:19.558Z,1000.66
2018-05-17T03:53:19.577Z,1000.65
2018-05-17T03:54:19.604Z,1000.65
2018-05-17T03:55:19.617Z,1000.63
2018-05-17T03:56:19.641Z,1000.68
2018-05-17T03:57:19.666Z,1000.66
2018-05-17T03:58:19.686Z,1000.68
2018-05-17T03:59:19.703Z,1000.69
2018-05-17T04:00:19.721Z,1000.7
2018-05-17T04:01:19.771Z,1000.73
2018-05-17T04:02:19.753Z,1000.73
2018-05-17T04:03:19.779Z,1000.72
2018-05-17T04:04:19.798Z,1000.74
2018-05-17T04:05:19.814Z,1000.72
2018-05-17T04:06:19.833Z,1000.81
2018-05-17T04:07:19.856Z,1000.79
2018-05-17T04:08:19.878Z,1000.82
2018-05-17T04:09:19.895Z,1000.83
2018-05-17T04:10:19.909Z,1000.89
2018-05-17T04:11:19.931Z,1000.85
2018-05-17T04:12:19.957Z,1000.83
2018-05-17T04:13:19.968Z,1000.84
2018-05-17T04:14:19.988Z,1000.9
2018-05-17T04:15:20.060Z,1000.8
2018-05-17T04:16:20.033Z,1000.86
2018-05-17T04:17:20.047Z,1000.92
2018-05-17T04:18:20.072Z,1000.87
2018-05-17T04:19:20.091Z,1000.89
2018-05-17T04:20:20.111Z,1000.92
2018-05-17T04:21:20.132Z,1000.91
2018-05-17T04:22:20.145Z,1000.93
2018-05-17T04:23:20.184Z,1000.93
2018-05-17T04:24:20.189Z,1000.88
2018-05-17T04:25:20.204Z,1000.91
2018-05-17T04:26:20.223Z,1000.92
2018-05-17T04:27:20.242Z,1000.92
2018-05-17T04:28:20.261Z,1000.95
2018-05-17T04:29:20.398Z,1000.95
2018-05-17T04:30:20.306Z,1000.97
2018-05-17T04:31:20.331Z,1001.02
2018-05-17T04:32:20.340Z,1001.04
2018-05-17T04:33:20.360Z,1001.03
2018-05-17T04:34:20.380Z,1001.08
2018-05-17T04:35:20.399Z,1001.1
2018-05-17T04:36:20.422Z,1001.09
2018-05-17T04:37:20.439Z,1001.09
2018-05-17T04:38:20.462Z,1001.1
2018-05-17T04:39:20.476Z,1001.13
2018-05-17T04:40:20.508Z,1001.13
2018-05-17T04:41:20.519Z,1001.11
2018-05-17T04:42:20.538Z,1001.15
2018-05-17T04:43:20.554Z,1001.1
2018-05-17T04:44:20.574Z,1001.13
2018-05-17T04:45:20.595Z,1001.11
2018-05-17T04:46:20.612Z,1001.12
2018-05-17T04:47:20.633Z,1001.16
2018-05-17T04:48:20.653Z,1001.16
2018-05-17T04:49:20.672Z,1001.22
2018-05-17T04:50:20.691Z,1001.2
2018-05-17T04:51:20.715Z,1001.21
2018-05-17T04:52:20.735Z,1001.2
2018-05-17T04:53:20.756Z,1001.2
2018-05-17T04:54:20.774Z,1001.24
2018-05-17T04:55:20.789Z,1001.26
2018-05-17T04:56:20.808Z,1001.25
2018-05-17T04:57:20.833Z,1001.26
2018-05-17T04:58:20.894Z,1001.29
2018-05-17T04:59:20.872Z,1001.29
2018-05-17T05:00:20.894Z,1001.31
2018-05-17T05:01:20.906Z,1001.3
2018-05-17T05:02:20.931Z,1001.3
2018-05-17T05:03:20.954Z,1001.34
2018-05-17T05:04:20.971Z,1001.31
2018-05-17T05:05:20.989Z,1001.34
2018-05-17T05:06:21.008Z,1001.39
2018-05-17T05:07:21.025Z,1001.38
2018-05-17T05:08:21.051Z,1001.34
2018-05-17T05:09:21.092Z,1001.38
2018-05-17T05:10:21.090Z,1001.38
2018-05-17T05:11:21.103Z,1001.4
2018-05-17T05:12:21.123Z,1001.39
2018-05-17T05:13:21.142Z,1001.4
2018-05-17T05:14:21.166Z,1001.42
2018-05-17T05:15:21.186Z,1001.47
2018-05-17T05:16:21.200Z,1001.4
2018-05-17T05:17:21.219Z,1001.44
2018-05-17T05:18:21.244Z,1001.49
2018-05-17T05:19:21.263Z,1001.48
2018-05-17T05:20:21.280Z,1001.41
2018-05-17T05:22:35.835Z,1001.51
2018-05-17T05:23:35.856Z,1001.49
2018-05-17T05:24:35.881Z,1001.53
2018-05-17T05:25:35.900Z,1001.52
2018-05-17T05:26:35.920Z,1001.58
2018-05-17T05:27:35.989Z,1001.51
2018-05-17T05:28:35.970Z,1001.53
2018-05-17T05:29:35.977Z,1001.57
2018-05-17T05:30:35.999Z,1001.58
2018-05-17T05:31:36.083Z,1001.6
2018-05-17T05:32:36.037Z,1001.6
2018-05-17T05:33:36.053Z,1001.64
2018-05-17T05:34:36.072Z,1001.61
2018-05-17T05:35:36.091Z,1001.63
2018-05-17T05:36:36.112Z,1001.67
2018-05-17T05:37:36.230Z,1001.64
2018-05-17T05:38:36.150Z,1001.65
2018-05-17T05:39:36.171Z,1001.72
2018-05-17T05:40:36.190Z,1001.73
2018-05-17T05:41:36.216Z,1001.76
2018-05-17T05:42:36.229Z,1001.79
2018-05-17T05:43:36.250Z,1001.79
2018-05-17T05:44:36.273Z,1001.78
2018-05-17T05:45:36.293Z,1001.79
2018-05-17T05:46:36.310Z,1001.8
2018-05-17T05:47:36.336Z,1001.82
2018-05-17T05:48:36.351Z,1001.86
2018-05-17T05:49:36.428Z,1001.78
2018-05-17T05:50:36.392Z,1001.82
2018-05-17T05:51:36.412Z,1001.83
2018-05-17T05:52:36.426Z,1001.76
2018-05-17T05:53:36.446Z,1001.82
2018-05-17T05:54:36.465Z,1001.86
2018-05-17T05:55:36.491Z,1001.85
2018-05-17T05:56:36.506Z,1001.92
2018-05-17T05:57:36.527Z,1001.87
2018-05-17T05:58:36.555Z,1001.83
2018-05-17T05:59:36.570Z,1001.87
2018-05-17T06:00:36.585Z,1001.89
2018-05-17T06:01:36.611Z,1001.93
2018-05-17T06:02:36.633Z,1001.9
2018-05-17T06:03:36.644Z,1001.92
2018-05-17T06:04:36.671Z,1001.88
2018-05-17T06:05:36.689Z,1001.96
2018-05-17T06:06:36.704Z,1001.96
2018-05-17T06:07:36.728Z,1001.95
2018-05-17T06:08:36.749Z,1001.95
2018-05-17T06:09:36.763Z,1001.91
2018-05-17T06:10:36.786Z,1001.97
2018-05-17T06:11:36.807Z,1001.96
2018-05-17T06:12:36.822Z,1002.01
2018-05-17T06:13:36.842Z,1002.01
2018-05-17T06:14:36.861Z,1001.93
2018-05-17T06:15:36.882Z,1002
2018-05-17T06:16:36.907Z,1002.02
2018-05-17T06:17:36.931Z,1002.02
2018-05-17T06:18:36.946Z,1002.03
2018-05-17T06:19:36.963Z,1002.12
2018-05-17T06:20:36.991Z,1002.06
2018-05-17T06:21:37.006Z,1002.06
2018-05-17T06:22:37.025Z,1002.14
2018-05-17T06:23:37.041Z,1002.08
2018-05-17T06:24:37.066Z,1002.11
2018-05-17T06:25:37.086Z,1002.17
2018-05-17T06:26:37.100Z,1002.16
2018-05-17T06:27:37.119Z,1002.18
2018-05-17T06:28:37.139Z,1002.17
2018-05-17T06:29:37.159Z,1002.18
2018-05-17T06:30:37.185Z,1002.19
2018-05-17T06:31:37.210Z,1002.2
2018-05-17T06:32:37.223Z,1002.14
2018-05-17T06:33:37.239Z,1002.17
2018-05-17T06:34:37.260Z,1002.24
2018-05-17T06:35:37.283Z,1002.23
2018-05-17T06:36:37.299Z,1002.2
2018-05-17T06:37:37.341Z,1002.22
2018-05-17T06:38:37.346Z,1002.28
2018-05-17T06:39:37.358Z,1002.31
2018-05-17T06:40:37.382Z,1002.23
2018-05-17T06:41:37.398Z,1002.29
2018-05-17T06:42:37.425Z,1002.26
2018-05-17T06:43:37.438Z,1002.33
2018-05-17T06:44:37.457Z,1002.37
2018-05-17T06:45:37.478Z,1002.37
2018-05-17T06:46:37.495Z,1002.36
2018-05-17T06:47:37.516Z,1002.36
2018-05-17T06:48:37.541Z,1002.38
2018-05-17T06:49:37.561Z,1002.44
2018-05-17T06:50:37.576Z,1002.44
2018-05-17T06:51:37.608Z,1002.5
2018-05-17T06:52:37.616Z,1002.44
2018-05-17T06:53:37.641Z,1002.48
2018-05-17T06:54:37.661Z,1002.5
2018-05-17T06:55:37.683Z,1002.49
2018-05-17T06:56:37.698Z,1002.47
2018-05-17T06:57:37.718Z,1002.51
2018-05-17T06:58:37.736Z,1002.5
2018-05-17T06:59:37.755Z,1002.46
2018-05-17T07:00:37.843Z,1002.4
2018-05-17T07:01:37.796Z,1002.45
2018-05-17T07:02:37.814Z,1002.45
2018-05-17T07:03:37.841Z,1002.42
2018-05-17T07:04:37.854Z,1002.47
2018-05-17T07:05:37.890Z,1002.48
2018-05-17T07:06:37.896Z,1002.42
2018-05-17T07:07:37.919Z,1002.43
2018-05-17T07:08:37.935Z,1002.42
2018-05-17T07:09:37.960Z,1002.42
2018-05-17T07:10:37.981Z,1002.43
2018-05-17T07:11:37.995Z,1002.48
2018-05-17T07:12:38.017Z,1002.42
2018-05-17T07:13:38.040Z,1002.45
2018-05-17T07:14:38.055Z,1002.5
2018-05-17T07:15:38.074Z,1002.47
2018-05-17T07:16:38.100Z,1002.47
2018-05-17T07:17:38.114Z,1002.5
2018-05-17T07:18:38.678Z,1002.5
2018-05-17T07:19:38.160Z,1002.47
2018-05-17T07:20:38.182Z,1002.49
2018-05-17T07:21:38.199Z,1002.46
2018-05-17T07:22:38.213Z,1002.48
2018-05-17T07:23:38.233Z,1002.45
2018-05-17T07:24:38.260Z,1002.48
2018-05-17T07:25:38.276Z,1002.45
2018-05-17T07:26:38.294Z,1002.52
2018-05-17T07:27:38.319Z,1002.53
2018-05-17T07:28:38.340Z,1002.54
2018-05-17T07:29:38.359Z,1002.56
2018-05-17T07:30:38.374Z,1002.58
2018-05-17T07:31:38.394Z,1002.62
2018-05-17T07:32:38.420Z,1002.64
2018-05-17T07:33:38.536Z,1002.6
2018-05-17T07:34:38.459Z,1002.6
2018-05-17T07:35:38.476Z,1002.69
2018-05-17T07:36:38.497Z,1002.67
2018-05-17T07:37:38.519Z,1002.7
2018-05-17T07:38:38.543Z,1002.71
2018-05-17T07:39:38.556Z,1002.68
2018-05-17T07:40:38.575Z,1002.8
2018-05-17T07:41:38.599Z,1002.76
2018-05-17T07:42:38.615Z,1002.77
2018-05-17T07:43:38.639Z,1002.79
2018-05-17T07:44:38.657Z,1002.77
2018-05-17T07:45:38.683Z,1002.77
2018-05-17T07:46:38.699Z,1002.75
2018-05-17T07:47:38.716Z,1002.82
2018-05-17T07:48:38.784Z,1002.83
2018-05-17T07:49:38.761Z,1002.81
2018-05-17T07:50:38.785Z,1002.82
2018-05-17T07:51:38.806Z,1002.87
2018-05-17T07:52:38.814Z,1002.92
2018-05-17T07:53:38.835Z,1002.89
2018-05-17T07:54:38.860Z,1002.95
2018-05-17T07:55:38.967Z,1002.99
2018-05-17T07:56:38.895Z,1002.96
2018-05-17T07:57:38.997Z,1002.97
2018-05-17T07:58:38.942Z,1002.95
2018-05-17T07:59:38.960Z,1002.99
2018-05-17T08:00:38.986Z,1003.02
2018-05-17T08:01:38.999Z,1002.97
2018-05-17T08:02:39.018Z,1003.05
2018-05-17T08:03:39.042Z,1003.02
2018-05-17T08:04:39.059Z,1003
2018-05-17T08:05:39.079Z,1003.04
2018-05-17T08:06:39.103Z,1003.05
2018-05-17T08:07:39.121Z,1002.99
2018-05-17T08:08:39.141Z,1003.04
2018-05-17T08:09:39.158Z,1002.99
2018-05-17T08:10:39.182Z,1002.95
2018-05-17T08:11:39.204Z,1002.94
2018-05-17T08:12:39.218Z,1002.97
2018-05-17T08:13:39.240Z,1002.97
2018-05-17T08:14:39.265Z,1002.98
2018-05-17T08:15:39.281Z,1003.01
2018-05-17T08:16:39.300Z,1002.96
2018-05-17T08:17:39.319Z,1003.02
2018-05-17T08:18:39.347Z,1003.02
2018-05-17T08:19:39.364Z,1002.97
2018-05-17T08:20:39.384Z,1002.99
2018-05-17T08:21:39.407Z,1003
2018-05-17T08:22:39.420Z,1003.04
2018-05-17T08:23:39.445Z,1003.06
2018-05-17T08:24:39.465Z,1003.1
2018-05-17T08:25:39.485Z,1003.1
2018-05-17T08:26:39.506Z,1003.1
2018-05-17T08:27:39.521Z,1003.13
2018-05-17T08:28:39.540Z,1003.14
2018-05-17T08:29:39.560Z,1003.14
2018-05-17T08:30:39.581Z,1003.17
2018-05-17T08:31:39.603Z,1003.18
2018-05-17T08:32:39.621Z,1003.26
2018-05-17T08:33:39.642Z,1003.28
2018-05-17T08:34:39.663Z,1003.29
2018-05-17T08:35:39.683Z,1003.31
2018-05-17T08:36:39.713Z,1003.33
2018-05-17T08:37:39.727Z,1003.34
2018-05-17T08:38:39.743Z,1003.32
2018-05-17T08:39:39.763Z,1003.42
2018-05-17T08:40:39.790Z,1003.4
2018-05-17T08:41:39.805Z,1003.38
2018-05-17T08:42:39.925Z,1003.35
2018-05-17T08:43:39.851Z,1003.36
2018-05-17T08:44:39.868Z,1003.39
2018-05-17T08:45:39.900Z,1003.43
2018-05-17T08:46:39.918Z,1003.38
2018-05-17T08:47:39.926Z,1003.38
2018-05-17T08:48:39.951Z,1003.4
2018-05-17T08:49:39.971Z,1003.32
2018-05-17T08:50:39.997Z,1003.35
2018-05-17T08:51:40.008Z,1003.37
2018-05-17T08:52:40.033Z,1003.39
2018-05-17T08:53:40.052Z,1003.39
2018-05-17T08:54:40.072Z,1003.42
2018-05-17T08:55:40.097Z,1003.49
2018-05-17T08:56:40.111Z,1003.42
2018-05-17T08:57:40.134Z,1003.42
2018-05-17T08:58:40.154Z,1003.42
2018-05-17T08:59:40.184Z,1003.45
2018-05-17T09:00:40.190Z,1003.43
2018-05-17T09:01:40.210Z,1003.48
2018-05-17T09:02:40.237Z,1003.46
2018-05-17T09:03:40.265Z,1003.48
2018-05-17T09:04:40.282Z,1003.47
2018-05-17T09:05:40.294Z,1003.49
2018-05-17T09:06:40.317Z,1003.54
2018-05-17T09:07:40.333Z,1003.5
2018-05-17T09:08:40.359Z,1003.54
2018-05-17T09:09:40.374Z,1003.54
2018-05-17T09:10:40.399Z,1003.52
2018-05-17T09:11:40.424Z,1003.57
2018-05-17T09:12:40.440Z,1003.51
2018-05-17T09:13:40.496Z,1003.55
2018-05-17T09:14:40.476Z,1003.58
2018-05-17T09:15:40.496Z,1003.6
2018-05-17T09:16:40.560Z,1003.62
2018-05-17T09:17:40.577Z,1003.62
2018-05-17T09:18:40.560Z,1003.61
2018-05-17T09:19:40.582Z,1003.62
2018-05-17T09:20:40.602Z,1003.65
2018-05-17T09:21:40.619Z,1003.65
2018-05-17T09:22:40.647Z,1003.67
2018-05-17T09:23:40.670Z,1003.71
2018-05-17T09:24:40.698Z,1003.68
2018-05-17T09:25:40.700Z,1003.69
2018-05-17T09:26:40.724Z,1003.7
2018-05-17T09:27:40.747Z,1003.69
2018-05-17T09:28:40.762Z,1003.72
2018-05-17T09:29:40.783Z,1003.67
2018-05-17T09:30:40.817Z,1003.72
2018-05-17T09:31:40.825Z,1003.74
2018-05-17T09:32:40.846Z,1003.73
2018-05-17T09:33:40.864Z,1003.76
2018-05-17T09:34:40.890Z,1003.76
2018-05-17T09:35:40.979Z,1003.74
2018-05-17T09:36:40.930Z,1003.78
2018-05-17T09:37:40.950Z,1003.73
2018-05-17T09:38:40.968Z,1003.76
2018-05-17T09:39:40.991Z,1003.75
2018-05-17T09:40:41.011Z,1003.77
2018-05-17T09:41:41.031Z,1003.77
2018-05-17T09:42:41.056Z,1003.77
2018-05-17T09:43:41.076Z,1003.74
2018-05-17T09:44:41.093Z,1003.75
2018-05-17T09:45:41.112Z,1003.8
2018-05-17T09:46:41.134Z,1003.76
2018-05-17T09:47:41.308Z,1003.75
2018-05-17T09:48:41.181Z,1003.82
2018-05-17T09:49:41.202Z,1003.8
2018-05-17T09:50:41.217Z,1003.8
2018-05-17T09:51:41.237Z,1003.79
2018-05-17T09:52:41.257Z,1003.84
2018-05-17T09:53:41.281Z,1003.79
2018-05-17T09:54:41.303Z,1003.82
2018-05-17T09:55:41.325Z,1003.8
2018-05-17T09:56:41.343Z,1003.82
2018-05-17T09:57:41.369Z,1003.84
2018-05-17T09:58:41.382Z,1003.81
2018-05-17T09:59:41.408Z,1003.86
2018-05-17T10:00:41.424Z,1003.85
2018-05-17T10:01:41.445Z,1003.8
2018-05-17T10:02:41.465Z,1003.83
2018-05-17T10:03:41.491Z,1003.79
2018-05-17T10:04:41.508Z,1003.9
2018-05-17T10:05:41.586Z,1003.81
2018-05-17T10:06:41.554Z,1003.86
2018-05-17T10:07:41.570Z,1003.85
2018-05-17T10:08:41.595Z,1003.86
2018-05-17T10:09:41.619Z,1003.89
2018-05-17T10:10:41.643Z,1003.83
2018-05-17T10:11:41.659Z,1003.82
2018-05-17T10:12:41.684Z,1003.81
2018-05-17T10:13:41.700Z,1003.79
2018-05-17T10:14:41.811Z,1003.8
2018-05-17T10:15:41.743Z,1003.82
2018-05-17T10:16:41.758Z,1003.83
2018-05-17T10:17:41.785Z,1003.83
2018-05-17T10:18:41.805Z,1003.83
2018-05-17T10:19:41.823Z,1003.8
2018-05-17T10:20:41.843Z,1003.8
2018-05-17T10:21:41.863Z,1003.8
2018-05-17T10:22:41.889Z,1003.8
2018-05-17T10:23:41.911Z,1003.82
2018-05-17T10:24:41.929Z,1003.8
2018-05-17T10:25:42.006Z,1003.82
2018-05-17T10:26:41.969Z,1003.8
2018-05-17T10:27:41.998Z,1003.84
2018-05-17T10:28:42.016Z,1003.83
2018-05-17T10:29:42.034Z,1003.76
2018-05-17T10:31:42.082Z,1003.87
2018-05-17T10:32:42.104Z,1003.83
2018-05-17T10:33:42.119Z,1003.83
2018-05-17T10:34:42.139Z,1003.82
2018-05-17T10:35:42.167Z,1003.81
2018-05-17T10:36:42.188Z,1003.81
2018-05-17T10:37:42.205Z,1003.81
2018-05-17T10:38:42.227Z,1003.84
2018-05-17T10:39:42.259Z,1003.83
2018-05-17T10:40:42.278Z,1003.83
2018-05-17T10:41:42.291Z,1003.83
2018-05-17T10:42:42.321Z,1003.86
2018-05-17T10:43:42.340Z,1003.88
2018-05-17T10:44:42.358Z,1003.87
2018-05-17T10:45:42.379Z,1003.9
2018-05-17T10:46:42.404Z,1003.9
2018-05-17T10:47:42.427Z,1003.84
2018-05-17T10:48:42.443Z,1003.88
2018-05-17T10:49:42.464Z,1003.84
2018-05-17T10:50:42.491Z,1003.87
2018-05-17T10:51:42.513Z,1003.84
2018-05-17T10:52:42.533Z,1003.86
2018-05-17T10:53:42.550Z,1003.86
2018-05-17T10:54:42.573Z,1003.85
2018-05-17T10:55:42.593Z,1003.89
2018-05-17T10:56:42.615Z,1003.88
2018-05-17T10:57:42.643Z,1003.88
2018-05-17T10:58:42.658Z,1003.95
2018-05-17T10:59:42.682Z,1003.96
2018-05-17T11:00:42.707Z,1003.96
2018-05-17T11:01:42.734Z,1003.99
2018-05-17T11:02:42.851Z,1003.93
2018-05-17T11:03:42.774Z,1003.95
2018-05-17T11:04:42.796Z,1003.91
2018-05-17T11:05:42.814Z,1003.96
2018-05-17T11:06:42.839Z,1003.98
2018-05-17T11:07:42.856Z,1003.98
2018-05-17T11:08:42.880Z,1003.92
2018-05-17T11:09:42.906Z,1003.92
2018-05-17T11:10:42.957Z,1003.95
2018-05-17T11:11:42.946Z,1003.94
2018-05-17T11:12:42.974Z,1003.91
2018-05-17T11:13:42.989Z,1004.02
2018-05-17T11:14:43.024Z,1004.01
2018-05-17T11:15:43.040Z,1003.92
2018-05-17T11:16:43.059Z,1003.96
2018-05-17T11:17:43.082Z,1003.99
2018-05-17T11:18:43.101Z,1004
2018-05-17T11:19:43.130Z,1003.97
2018-05-17T11:20:43.156Z,1004.05
2018-05-17T11:21:43.173Z,1004.09
2018-05-17T11:22:43.200Z,1003.98
2018-05-17T11:23:43.219Z,1004.03
2018-05-17T11:24:43.241Z,1003.99
2018-05-17T11:25:43.264Z,1003.97
2018-05-17T11:26:43.345Z,1004
2018-05-17T11:27:43.345Z,1003.96
2018-05-17T11:28:43.328Z,1003.96
2018-05-17T11:29:43.355Z,1003.97
2018-05-17T11:30:43.373Z,1003.98
2018-05-17T11:31:43.400Z,1003.96
2018-05-17T11:32:43.425Z,1003.96
2018-05-17T11:33:43.447Z,1003.98
2018-05-17T11:34:43.465Z,1003.96
2018-05-17T11:35:43.491Z,1003.93
2018-05-17T11:36:43.514Z,1004
2018-05-17T11:37:43.533Z,1003.95
2018-05-17T11:38:43.561Z,1003.93
2018-05-17T11:39:43.578Z,1003.99
2018-05-17T11:40:43.606Z,1003.93
2018-05-17T11:41:43.627Z,1003.95
2018-05-17T11:42:43.646Z,1003.9
2018-05-17T11:43:43.674Z,1003.92
2018-05-17T11:44:43.692Z,1003.92
2018-05-17T11:45:43.722Z,1003.92
2018-05-17T11:46:43.738Z,1003.85
2018-05-17T11:47:43.766Z,1003.9
2018-05-17T11:48:43.792Z,1003.88
2018-05-17T11:49:43.813Z,1003.86
2018-05-17T11:50:43.835Z,1003.9
2018-05-17T11:51:43.855Z,1003.92
2018-05-17T11:52:43.879Z,1003.85
2018-05-17T11:53:43.905Z,1003.86
2018-05-17T11:54:43.930Z,1003.86
2018-05-17T11:55:43.952Z,1003.88
2018-05-17T11:56:43.977Z,1003.9
2018-05-17T11:57:44.003Z,1003.86
2018-05-17T11:58:44.018Z,1003.87
2018-05-17T11:59:44.047Z,1003.83
2018-05-17T12:00:44.070Z,1003.88
2018-05-17T12:01:44.091Z,1003.85
2018-05-17T12:02:44.202Z,1003.82
2018-05-17T12:03:44.135Z,1003.89
2018-05-17T12:04:44.157Z,1003.84
2018-05-17T12:05:44.186Z,1003.86
2018-05-17T12:06:44.209Z,1003.86
2018-05-17T12:07:44.234Z,1003.85
2018-05-17T12:08:44.257Z,1003.83
2018-05-17T12:09:44.284Z,1003.81
2018-05-17T12:10:44.305Z,1003.89
2018-05-17T12:11:44.323Z,1003.88